createdAt,value
2019-04-07T00:00:01.995Z,724.6
2019-04-07T00:01:05.618Z,725.1
2019-04-07T00:02:09.182Z,724.8
2019-04-07T00:03:12.832Z,724.8
2019-04-07T00:04:15.823Z,725.1
2019-04-07T00:05:19.591Z,724.5
2019-04-07T00:06:23.605Z,725.3
2019-04-07T00:07:29.671Z,725.4
2019-04-07T00:08:34.395Z,725.2
2019-04-07T00:09:37.848Z,725.7
2019-04-07T00:10:40.172Z,725.4
2019-04-07T00:11:43.270Z,725.3
2019-04-07T00:12:46.473Z,725.5
2019-04-07T00:13:50.399Z,725.3
2019-04-07T00:14:54.036Z,725.3
2019-04-07T00:15:57.327Z,725.6
2019-04-07T00:17:01.660Z,725.7
2019-04-07T00:18:05.360Z,725.9
2019-04-07T00:19:08.659Z,726
2019-04-07T00:20:12.441Z,725.9
2019-04-07T00:21:17.999Z,725.9
2019-04-07T00:22:21.408Z,726
2019-04-07T00:23:24.600Z,726.2
2019-04-07T00:24:27.038Z,725.7
2019-04-07T00:25:30.570Z,726.1
2019-04-07T00:26:33.148Z,726.2
2019-04-07T00:27:35.663Z,725.8
2019-04-07T00:28:38.216Z,725.9
2019-04-07T00:29:41.694Z,726.5
2019-04-07T00:30:44.483Z,726
2019-04-07T00:31:46.745Z,726.3
2019-04-07T00:32:49.126Z,726.3
2019-04-07T00:33:52.130Z,726.1
2019-04-07T00:34:56.777Z,726.2
2019-04-07T00:36:01.292Z,725.5
2019-04-07T00:37:03.782Z,725.6
2019-04-07T00:38:07.377Z,725.7
2019-04-07T00:39:10.532Z,726
2019-04-07T00:40:14.738Z,725.9
2019-04-07T00:41:18.352Z,726
2019-04-07T00:42:21.497Z,726
2019-04-07T00:43:24.186Z,725.7
2019-04-07T00:44:26.716Z,725.5
2019-04-07T00:45:29.485Z,725.4
2019-04-07T00:46:32.243Z,725.4
2019-04-07T00:47:36.070Z,725.8
2019-04-07T00:48:39.551Z,725.4
2019-04-07T00:49:43.439Z,725.5
2019-04-07T00:50:46.975Z,725.5
2019-04-07T00:51:51.249Z,725.5
2019-04-07T00:52:55.958Z,725.4
2019-04-07T00:53:58.731Z,725.4
2019-04-07T00:55:02.273Z,725.3
2019-04-07T00:56:06.032Z,725.2
2019-04-07T00:57:08.735Z,725.8
2019-04-07T00:58:10.748Z,725.3
2019-04-07T00:59:14.319Z,725.4
2019-04-07T01:00:21.815Z,725.6
2019-04-07T01:01:25.145Z,725.6
2019-04-07T01:02:28.567Z,725.5
2019-04-07T01:03:31.176Z,725.5
2019-04-07T01:04:34.285Z,725.9
2019-04-07T01:06:44.795Z,726.1
2019-04-07T01:07:47.814Z,726
2019-04-07T01:08:51.488Z,726.3
2019-04-07T01:09:55.773Z,726.3
2019-04-07T01:10:59.636Z,725.8
2019-04-07T01:12:02.842Z,725.6
2019-04-07T01:13:07.659Z,725.8
2019-04-07T01:14:12.356Z,725.6
2019-04-07T01:15:15.787Z,725.4
2019-04-07T01:16:18.773Z,725.5
2019-04-07T01:17:21.555Z,725.9
2019-04-07T01:19:30.977Z,725.8
2019-04-07T01:20:33.409Z,726
2019-04-07T01:21:36.313Z,725.7
2019-04-07T01:22:39.813Z,725.7
2019-04-07T01:23:43.563Z,725.3
2019-04-07T01:24:46.822Z,725.3
2019-04-07T01:25:49.254Z,725.4
2019-04-07T01:26:52.361Z,725.2
2019-04-07T01:27:56.573Z,725.4
2019-04-07T01:29:00.461Z,725.4
2019-04-07T01:30:04.734Z,725.3
2019-04-07T01:31:09.682Z,725.2
2019-04-07T01:32:12.445Z,725.4
2019-04-07T01:33:15.129Z,725.5
2019-04-07T01:34:17.640Z,725.6
2019-04-07T01:35:21.264Z,725.5
2019-04-07T01:36:25.781Z,725.7
2019-04-07T01:37:29.500Z,725.5
2019-04-07T01:38:33.747Z,725.4
2019-04-07T01:39:37.293Z,725.2
2019-04-07T01:40:41.157Z,725
2019-04-07T01:41:44.131Z,725.4
2019-04-07T01:42:47.160Z,725.5
2019-04-07T01:43:50.538Z,725.4
2019-04-07T01:44:53.464Z,725.8
2019-04-07T01:45:56.537Z,725.3
2019-04-07T01:46:59.724Z,725.4
2019-04-07T01:48:02.718Z,724.8
2019-04-07T01:49:04.917Z,725.7
2019-04-07T01:50:08.693Z,725.6
2019-04-07T01:51:11.871Z,725.1
2019-04-07T01:52:15.010Z,725.4
2019-04-07T01:53:17.993Z,725.3
2019-04-07T01:54:21.801Z,724.9
2019-04-07T01:55:26.847Z,725.6
2019-04-07T01:56:31.575Z,724.8
2019-04-07T01:57:35.446Z,725.3
2019-04-07T01:58:39.103Z,725.2
2019-04-07T01:59:42.009Z,725.2
2019-04-07T02:00:45.992Z,725.3
2019-04-07T02:01:49.738Z,725.1
2019-04-07T02:02:53.498Z,724.8
2019-04-07T02:03:56.228Z,724.4
2019-04-07T02:05:00.592Z,724.2
2019-04-07T02:07:09.139Z,724.6
2019-04-07T02:08:12.946Z,724.5
2019-04-07T02:09:16.173Z,724.6
2019-04-07T02:10:19.692Z,725.1
2019-04-07T02:11:24.214Z,724.9
2019-04-07T02:12:27.884Z,725
2019-04-07T02:13:30.380Z,724.9
2019-04-07T02:14:33.221Z,724.7
2019-04-07T02:15:35.766Z,724.9
2019-04-07T02:16:38.678Z,724.6
2019-04-07T02:17:42.734Z,724.9
2019-04-07T02:18:47.378Z,724.7
2019-04-07T02:19:52.395Z,725.1
2019-04-07T02:20:55.620Z,725.3
2019-04-07T02:21:58.245Z,724.9
2019-04-07T02:23:02.463Z,725
2019-04-07T02:24:06.406Z,725
2019-04-07T02:25:08.449Z,724.6
2019-04-07T02:26:11.366Z,725.1
2019-04-07T02:27:16.418Z,724.7
2019-04-07T02:28:21.836Z,725.2
2019-04-07T02:29:25.180Z,724.9
2019-04-07T02:30:27.705Z,725.2
2019-04-07T02:31:32.365Z,725.5
2019-04-07T02:32:36.220Z,725.1
2019-04-07T02:33:40.083Z,725.4
2019-04-07T02:34:46.512Z,725.7
2019-04-07T02:35:52.391Z,725.8
2019-04-07T02:36:56.465Z,725.6
2019-04-07T02:37:59.054Z,725.6
2019-04-07T02:39:02.997Z,725.5
2019-04-07T02:40:07.573Z,725.4
2019-04-07T02:41:12.938Z,725.4
2019-04-07T02:42:17.501Z,725.1
2019-04-07T02:43:22.096Z,725.1
2019-04-07T02:44:27.289Z,725.3
2019-04-07T02:45:30.985Z,725
2019-04-07T02:46:35.100Z,725
2019-04-07T02:47:39.270Z,725.2
2019-04-07T02:48:43.426Z,724.6
2019-04-07T02:49:47.380Z,724.9
2019-04-07T02:50:51.371Z,724.7
2019-04-07T02:51:56.143Z,724.4
2019-04-07T02:53:01.319Z,724
2019-04-07T02:54:04.239Z,724.1
2019-04-07T02:55:07.278Z,723.9
2019-04-07T02:56:11.387Z,723.7
2019-04-07T02:57:15.849Z,723.9
2019-04-07T02:58:19.327Z,723.8
2019-04-07T02:59:23.688Z,724
2019-04-07T03:00:26.372Z,724.3
2019-04-07T03:01:30.748Z,724.2
2019-04-07T03:02:35.128Z,723.8
2019-04-07T03:03:41.167Z,724.2
2019-04-07T03:04:46.498Z,723.9
2019-04-07T03:05:51.264Z,723.9
2019-04-07T03:06:58.438Z,724.1
2019-04-07T03:08:03.690Z,724
2019-04-07T03:09:07.509Z,724
2019-04-07T03:10:11.799Z,723.8
2019-04-07T03:11:16.617Z,723.5
2019-04-07T03:12:21.687Z,723.3
2019-04-07T03:13:26.142Z,723.5
2019-04-07T03:14:30.187Z,723.6
2019-04-07T03:15:34.308Z,723.5
2019-04-07T03:16:38.407Z,723.2
2019-04-07T03:17:42.055Z,723.1
2019-04-07T03:18:46.253Z,723.1
2019-04-07T03:19:49.578Z,723.2
2019-04-07T03:20:53.821Z,723.2
2019-04-07T03:21:58.270Z,722.9
2019-04-07T03:23:03.483Z,723.2
2019-04-07T03:24:07.957Z,723
2019-04-07T03:25:13.099Z,723.3
2019-04-07T03:26:18.337Z,723.3
2019-04-07T03:27:20.634Z,723
2019-04-07T03:28:24.070Z,723.2
2019-04-07T03:29:28.137Z,723.2
2019-04-07T03:31:40.719Z,723.1
2019-04-07T03:38:12.081Z,723.9
2019-04-07T03:39:15.569Z,723.4
2019-04-07T03:40:19.930Z,723.1
2019-04-07T03:41:23.684Z,723.4
2019-04-07T03:42:26.717Z,723.4
2019-04-07T03:43:31.523Z,723.2
2019-04-07T03:44:34.644Z,723
2019-04-07T03:45:38.877Z,722.6
2019-04-07T03:46:43.531Z,722.8
2019-04-07T03:47:47.500Z,722.8
2019-04-07T03:48:51.404Z,722.5
2019-04-07T03:49:56.747Z,722.5
2019-04-07T03:51:03.132Z,722.3
2019-04-07T03:52:08.078Z,722.2
2019-04-07T03:53:12.335Z,722.1
2019-04-07T03:54:18.359Z,721.9
2019-04-07T03:55:25.024Z,721.9
2019-04-07T03:56:28.442Z,722.1
2019-04-07T03:57:32.697Z,722
2019-04-07T03:58:36.143Z,722.2
2019-04-07T03:59:39.310Z,721.9
2019-04-07T04:00:43.977Z,721.7
2019-04-07T04:01:48.218Z,721.8
2019-04-07T04:02:51.507Z,721.9
2019-04-07T04:03:56.616Z,721.8
2019-04-07T04:05:01.330Z,722.1
2019-04-07T04:06:06.757Z,722
2019-04-07T04:08:15.967Z,722.2
2019-04-07T04:09:19.293Z,722.1
2019-04-07T04:10:24.246Z,721.9
2019-04-07T04:11:28.570Z,722.3
2019-04-07T04:12:32.718Z,721.9
2019-04-07T04:13:36.391Z,722.1
2019-04-07T04:14:40.737Z,721.7
2019-04-07T04:15:44.885Z,721.8
2019-04-07T04:16:49.634Z,721.6
2019-04-07T04:17:55.226Z,722.1
2019-04-07T04:19:00.013Z,721.6
2019-04-07T04:20:02.913Z,721.7
2019-04-07T04:21:05.595Z,722.2
2019-04-07T04:22:10.136Z,722
2019-04-07T04:23:15.320Z,722.1
2019-04-07T04:24:21.433Z,721.4
2019-04-07T04:25:25.208Z,721.8
2019-04-07T04:26:30.683Z,721.8
2019-04-07T04:27:34.982Z,721.2
2019-04-07T04:28:39.002Z,721.9
2019-04-07T04:29:42.467Z,721.3
2019-04-07T04:30:46.323Z,721.1
2019-04-07T04:31:50.138Z,722
2019-04-07T04:32:54.004Z,720.9
2019-04-07T04:33:58.476Z,721.5
2019-04-07T04:35:03.692Z,721.3
2019-04-07T04:36:08.473Z,721.5
2019-04-07T04:37:13.124Z,721
2019-04-07T04:38:17.696Z,721.4
2019-04-07T04:39:23.534Z,721.1
2019-04-07T04:40:25.939Z,720.8
2019-04-07T04:41:30.375Z,720.7
2019-04-07T04:42:35.767Z,720.5
2019-04-07T04:43:40.374Z,720.7
2019-04-07T04:44:45.848Z,719.9
2019-04-07T04:45:50.275Z,720.2
2019-04-07T04:46:53.528Z,720.1
2019-04-07T04:47:57.123Z,720.3
2019-04-07T04:49:00.544Z,720
2019-04-07T04:50:09.362Z,719.8
2019-04-07T04:51:14.145Z,719.7
2019-04-07T04:52:18.518Z,719.4
2019-04-07T04:53:21.044Z,719.5
2019-04-07T04:54:24.543Z,719.2
2019-04-07T04:55:27.721Z,718.8
2019-04-07T04:56:32.650Z,718.5
2019-04-07T04:57:36.782Z,718.8
2019-04-07T04:58:40.001Z,718.6
2019-04-07T04:59:43.979Z,718.2
2019-04-07T05:00:46.691Z,718.1
2019-04-07T05:01:51.836Z,718.3
2019-04-07T05:02:54.530Z,718.3
2019-04-07T05:03:58.394Z,717.6
2019-04-07T05:05:07.485Z,717.5
2019-04-07T05:06:14.410Z,717
2019-04-07T05:07:18.960Z,717.2
2019-04-07T05:08:22.447Z,716.7
2019-04-07T05:10:34.775Z,716.7
2019-04-07T05:11:38.506Z,716.6
2019-04-07T05:12:43.287Z,716.3
2019-04-07T05:13:45.565Z,716.3
2019-04-07T05:14:49.059Z,715.9
2019-04-07T05:15:52.582Z,715.8
2019-04-07T05:16:56.197Z,715.8
2019-04-07T05:18:00.394Z,715.5
2019-04-07T05:19:04.856Z,715.4
2019-04-07T05:20:10.144Z,715.7
2019-04-07T05:21:15.085Z,715.6
2019-04-07T05:22:18.871Z,715.8
2019-04-07T05:23:21.739Z,715.6
2019-04-07T05:24:24.737Z,715.7
2019-04-07T05:25:28.343Z,715.7
2019-04-07T05:26:32.249Z,715.4
2019-04-07T05:27:35.890Z,715.5
2019-04-07T05:28:40.586Z,715.7
2019-04-07T05:29:43.043Z,715.7
2019-04-07T05:30:45.283Z,715.7
2019-04-07T05:31:47.545Z,715.9
2019-04-07T05:32:50.636Z,716.2
2019-04-07T05:33:53.633Z,716.2
2019-04-07T05:34:57.855Z,716.6
2019-04-07T05:36:01.472Z,715.9
2019-04-07T05:37:04.375Z,716.5
2019-04-07T05:38:10.110Z,716.5
2019-04-07T05:39:13.235Z,716.4
2019-04-07T05:40:16.900Z,716.7
2019-04-07T05:41:19.809Z,716.7
2019-04-07T05:42:22.515Z,716.7
2019-04-07T05:43:26.044Z,716.7
2019-04-07T05:44:29.419Z,716.3
2019-04-07T05:59:47.144Z,716.2
2019-04-07T06:00:51.711Z,716.3
2019-04-07T06:04:07.596Z,716
2019-04-07T06:05:11.024Z,716.1
2019-04-07T06:06:15.817Z,715.6
2019-04-07T06:07:19.058Z,715.7
2019-04-07T06:09:29.600Z,715.4
2019-04-07T06:10:32.539Z,715.6
2019-04-07T06:13:48.674Z,715.8
2019-04-07T06:14:52.916Z,715.9
2019-04-07T06:15:56.504Z,715.7
2019-04-07T06:16:59.995Z,716
2019-04-07T06:18:05.124Z,715.8
2019-04-07T06:21:18.943Z,714.8
2019-04-07T06:27:50.009Z,715.6
2019-04-07T06:31:06.504Z,715.9
2019-04-07T06:33:16.113Z,715.9
2019-04-07T06:34:19.955Z,715.8
2019-04-07T06:35:23.995Z,715.4
2019-04-07T06:36:29.645Z,715.1
2019-04-07T06:37:34.046Z,715.1
2019-04-07T06:39:42.474Z,714.7
2019-04-07T06:40:46.926Z,714.7
2019-04-07T06:41:50.301Z,715.2
2019-04-07T06:42:53.331Z,715.2
2019-04-07T06:45:03.147Z,715.5
2019-04-07T06:46:08.229Z,715
2019-04-07T06:47:10.796Z,715
2019-04-07T06:48:14.873Z,714.8
2019-04-07T06:49:17.536Z,714.9
2019-04-07T06:50:22.193Z,714.6
2019-04-07T06:53:36.920Z,714.6
2019-04-07T06:54:40.855Z,714.3
2019-04-07T06:55:46.052Z,714.7
2019-04-07T06:56:49.014Z,713.8
2019-04-07T06:57:52.621Z,713.4
2019-04-07T06:58:56.208Z,714
2019-04-07T07:00:00.907Z,713.7
2019-04-07T07:01:06.786Z,713.2
2019-04-07T07:02:10.603Z,713.6
2019-04-07T07:03:14.863Z,712.7
2019-04-07T07:04:18.758Z,713.2
2019-04-07T07:05:22.384Z,713
2019-04-07T07:06:27.265Z,713.1
2019-04-07T07:07:29.803Z,713.1
2019-04-07T07:09:41.603Z,712.5
2019-04-07T07:10:45.547Z,712.7
2019-04-07T07:11:48.571Z,712.2
2019-04-07T07:12:52.775Z,712.5
2019-04-07T07:13:55.566Z,712.6
2019-04-07T07:17:10.802Z,712.5
2019-04-07T07:18:14.190Z,712.5
2019-04-07T07:19:17.201Z,712.3
2019-04-07T07:20:22.177Z,712.8
2019-04-07T07:21:27.363Z,712.9
2019-04-07T07:22:31.612Z,712.9
2019-04-07T07:23:34.718Z,712.9
2019-04-07T07:24:39.817Z,712.8
2019-04-07T07:25:43.626Z,712.6
2019-04-07T07:26:48.363Z,712.7
2019-04-07T07:27:52.300Z,712.7
2019-04-07T07:28:57.514Z,712.6
2019-04-07T07:30:01.185Z,712.3
2019-04-07T07:31:05.613Z,712.5
2019-04-07T07:32:09.157Z,712.1
2019-04-07T07:33:14.793Z,712.2
2019-04-07T07:34:19.693Z,712.3
2019-04-07T07:35:23.457Z,712.2
2019-04-07T07:36:27.388Z,712
2019-04-07T07:37:32.167Z,711.6
2019-04-07T07:38:36.078Z,711.7
2019-04-07T07:41:55.087Z,711.8
2019-04-07T07:57:14.489Z,710.8
2019-04-07T07:58:21.515Z,710.8
2019-04-07T07:59:25.558Z,710.9
2019-04-07T08:00:34.431Z,710.8
2019-04-07T08:15:52.119Z,709.3
2019-04-07T08:17:00.095Z,709
2019-04-07T08:20:17.449Z,708.8
2019-04-07T08:21:22.757Z,708.7
2019-04-07T08:23:31.704Z,708.5
2019-04-07T08:24:35.123Z,708.7
2019-04-07T08:25:38.940Z,708.7
2019-04-07T08:26:41.888Z,708.6
2019-04-07T08:27:46.326Z,708.6
2019-04-07T08:28:51.393Z,708.8
2019-04-07T08:29:55.000Z,708.3
2019-04-07T08:30:58.671Z,708.8
2019-04-07T08:32:00.895Z,708.6
2019-04-07T08:33:05.425Z,708.8
2019-04-07T08:34:09.891Z,708.4
2019-04-07T08:35:14.312Z,708.3
2019-04-07T08:36:17.212Z,708
2019-04-07T08:37:23.324Z,708.2
2019-04-07T08:47:06.602Z,709.1
2019-04-07T08:48:10.869Z,708.6
2019-04-07T08:49:14.606Z,708.7
2019-04-07T08:50:20.524Z,708.6
2019-04-07T08:52:38.400Z,708.9
2019-04-07T09:03:29.097Z,708.5
2019-04-07T09:04:32.899Z,708.5
2019-04-07T09:05:36.531Z,708
2019-04-07T09:06:41.369Z,707.6
2019-04-07T09:07:44.470Z,707.5
2019-04-07T09:08:47.599Z,707.5
2019-04-07T09:09:52.826Z,707.3
2019-04-07T09:10:58.201Z,707
2019-04-07T09:12:02.581Z,707
2019-04-07T09:14:11.465Z,707.2
2019-04-07T09:15:15.455Z,707.1
2019-04-07T09:16:22.476Z,707.5
2019-04-07T09:18:32.356Z,707.1
2019-04-07T09:26:09.430Z,707.2
2019-04-07T09:30:29.706Z,706.8
2019-04-07T09:31:33.884Z,706.9
2019-04-07T09:32:37.247Z,707
2019-04-07T09:33:40.453Z,707
2019-04-07T09:34:43.272Z,706.8
2019-04-07T09:35:45.702Z,707.3
2019-04-07T09:41:09.448Z,706.5
2019-04-07T09:42:11.956Z,706.8
2019-04-07T09:44:21.992Z,706.9
2019-04-07T09:45:26.290Z,706.7
2019-04-07T09:46:31.108Z,706.8
2019-04-07T09:47:33.394Z,707.2
2019-04-07T09:50:51.350Z,706.9
2019-04-07T09:51:56.194Z,706.9
2019-04-07T09:52:58.650Z,706.9
2019-04-07T09:54:01.804Z,707.2
2019-04-07T09:55:07.599Z,706.8
2019-04-07T09:56:14.502Z,706.7
2019-04-07T09:57:20.087Z,706.5
2019-04-07T09:58:23.945Z,706.5
2019-04-07T09:59:26.401Z,706.9
2019-04-07T10:00:29.946Z,706.7
2019-04-07T10:01:35.293Z,706.4
2019-04-07T10:02:39.869Z,706.4
2019-04-07T10:03:41.774Z,706.3
2019-04-07T10:04:44.679Z,706.4
2019-04-07T10:05:46.873Z,706
2019-04-07T10:06:51.528Z,706.1
2019-04-07T10:07:55.377Z,705.6
2019-04-07T10:08:57.580Z,705.5
2019-04-07T10:11:06.324Z,705.5
2019-04-07T10:12:10.126Z,705.7
2019-04-07T10:13:16.191Z,705.9
2019-04-07T10:14:19.600Z,705.6
2019-04-07T10:15:22.884Z,705.4
2019-04-07T10:16:25.805Z,705.4
2019-04-07T10:17:29.899Z,705.4
2019-04-07T10:19:38.924Z,705.8
2019-04-07T10:20:44.468Z,705.4
2019-04-07T10:21:47.524Z,705.5
2019-04-07T10:22:52.041Z,706.1
2019-04-07T10:23:56.311Z,705.8
2019-04-07T10:24:59.762Z,706.1
2019-04-07T10:26:04.082Z,705.7
2019-04-07T10:27:09.267Z,706
2019-04-07T10:29:19.764Z,706.2
2019-04-07T10:30:25.962Z,705.7
2019-04-07T10:31:29.455Z,705.6
2019-04-07T10:32:33.063Z,705.3
2019-04-07T10:33:37.818Z,705.5
2019-04-07T10:34:41.304Z,705.3
2019-04-07T10:35:43.467Z,705.2
2019-04-07T10:36:46.499Z,705.5
2019-04-07T10:38:57.474Z,706.1
2019-04-07T10:41:06.752Z,705.6
2019-04-07T10:42:10.151Z,706.1
2019-04-07T10:43:14.963Z,705.6
2019-04-07T10:44:19.858Z,705.9
2019-04-07T10:45:23.838Z,706
2019-04-07T10:46:28.288Z,706.1
2019-04-07T10:47:31.761Z,705.9
2019-04-07T10:48:35.507Z,706.2
2019-04-07T10:49:40.626Z,706.1
2019-04-07T10:50:44.273Z,706.4
2019-04-07T10:51:51.258Z,706.3
2019-04-07T10:52:56.160Z,706
2019-04-07T10:53:59.885Z,706.1
2019-04-07T10:55:03.573Z,706
2019-04-07T10:56:07.396Z,706
2019-04-07T10:57:11.102Z,705.9
2019-04-07T10:58:14.046Z,706
2019-04-07T10:59:17.968Z,706.3
2019-04-07T11:00:24.021Z,706.4
2019-04-07T11:01:27.511Z,706.1
2019-04-07T11:02:31.358Z,705.8
2019-04-07T11:03:36.242Z,705.9
2019-04-07T11:04:39.539Z,705.9
2019-04-07T11:05:43.693Z,706
2019-04-07T11:06:48.267Z,705.8
2019-04-07T11:07:51.626Z,706.2
2019-04-07T11:08:55.436Z,706.3
2019-04-07T11:10:00.094Z,706.1
2019-04-07T11:11:04.538Z,706.3
2019-04-07T11:12:07.719Z,706.3
2019-04-07T11:14:19.466Z,706.8
2019-04-07T11:15:22.820Z,706.3
2019-04-07T11:16:25.223Z,706.2
2019-04-07T11:17:29.198Z,706.4
2019-04-07T11:18:32.602Z,706.2
2019-04-07T11:19:37.976Z,706
2019-04-07T11:20:40.453Z,706.3
2019-04-07T11:21:42.623Z,705.8
2019-04-07T11:22:45.957Z,706.3
2019-04-07T11:23:49.316Z,706.7
2019-04-07T11:24:53.702Z,706.3
2019-04-07T11:25:57.247Z,706.5
2019-04-07T11:27:00.752Z,706.1
2019-04-07T11:28:05.969Z,706.3
2019-04-07T11:29:09.986Z,706.5
2019-04-07T11:30:13.871Z,706.1
2019-04-07T11:31:18.763Z,706
2019-04-07T11:32:22.704Z,705.7
2019-04-07T11:33:25.980Z,705.3
2019-04-07T11:34:30.973Z,705.6
2019-04-07T11:35:34.572Z,705.8
2019-04-07T11:36:39.662Z,705.7
2019-04-07T11:37:45.012Z,705.9
2019-04-07T11:38:48.386Z,705.5
2019-04-07T11:39:51.094Z,705.7
2019-04-07T11:40:55.209Z,705.9
2019-04-07T11:41:59.550Z,705.9
2019-04-07T11:43:03.252Z,705.8
2019-04-07T11:44:07.834Z,706.3
2019-04-07T11:45:12.298Z,705.7
2019-04-07T11:46:16.426Z,705.7
2019-04-07T11:47:21.371Z,706.1
2019-04-07T11:48:26.327Z,706
2019-04-07T11:49:28.985Z,706.1
2019-04-07T11:50:34.327Z,706.1
2019-04-07T11:51:40.608Z,706
2019-04-07T11:52:43.486Z,706.1
2019-04-07T11:53:47.739Z,705.9
2019-04-07T11:54:52.992Z,706
2019-04-07T11:55:55.084Z,705.9
2019-04-07T11:56:59.152Z,705.7
2019-04-07T12:00:12.885Z,706.9
2019-04-07T12:01:18.605Z,706.5
2019-04-07T12:04:34.424Z,707.1
2019-04-07T12:05:38.057Z,707.1
2019-04-07T12:06:40.864Z,707
2019-04-07T12:07:43.308Z,706.8
2019-04-07T12:08:48.907Z,706.7
2019-04-07T12:09:52.744Z,706.9
2019-04-07T12:12:00.751Z,706.8
2019-04-07T12:13:03.671Z,706.7
2019-04-07T12:14:08.967Z,706.4
2019-04-07T12:15:12.017Z,706.5
2019-04-07T12:16:17.648Z,706.9
2019-04-07T12:17:22.051Z,707.3
2019-04-07T12:18:25.355Z,707.2
2019-04-07T12:19:30.533Z,707.1
2019-04-07T12:21:41.592Z,707.2
2019-04-07T12:29:20.336Z,707.6
2019-04-07T12:30:26.446Z,707.6
2019-04-07T12:31:31.089Z,707.2
2019-04-07T12:32:36.065Z,707.1
2019-04-07T12:36:55.115Z,707.2
2019-04-07T12:39:03.966Z,707.3
2019-04-07T12:40:09.723Z,707.5
2019-04-07T12:42:18.556Z,707.7
2019-04-07T12:43:20.747Z,707.5
2019-04-07T12:44:25.177Z,707.7
2019-04-07T12:45:31.832Z,707.7
2019-04-07T12:46:35.244Z,707.5
2019-04-07T12:47:38.261Z,707.6
2019-04-07T12:48:44.052Z,707.5
2019-04-07T12:49:48.714Z,707.8
2019-04-07T12:50:55.213Z,707
2019-04-07T12:52:00.212Z,707.7
2019-04-07T12:56:18.517Z,707.5
2019-04-07T12:57:21.931Z,708.2
2019-04-07T12:58:27.717Z,708
2019-04-07T12:59:30.846Z,707.8
2019-04-07T13:03:57.708Z,708.5
2019-04-07T13:12:42.164Z,709.8
2019-04-07T13:13:47.031Z,709.9
2019-04-07T13:14:50.733Z,710
2019-04-07T13:15:54.752Z,710
2019-04-07T13:20:17.968Z,710.4
2019-04-07T13:22:29.898Z,710.9
2019-04-07T13:25:49.159Z,710.7
2019-04-07T13:26:57.278Z,710.9
2019-04-07T13:28:00.596Z,710.8
2019-04-07T13:29:05.302Z,710.9
2019-04-07T13:30:08.929Z,710.6
2019-04-07T13:31:14.548Z,711.1
2019-04-07T13:32:17.463Z,711.1
2019-04-07T13:34:25.978Z,710.4
2019-04-07T13:35:28.172Z,710.3
2019-04-07T13:36:31.340Z,710.2
2019-04-07T13:37:37.143Z,710.1
2019-04-07T13:38:43.027Z,710.5
2019-04-07T13:40:51.823Z,710.2
2019-04-07T13:47:23.160Z,709.7
2019-04-07T13:48:26.825Z,709.5
2019-04-07T13:50:38.773Z,710.1
2019-04-07T13:53:57.546Z,710
2019-04-07T13:56:09.926Z,710.3
2019-04-07T13:57:21.583Z,710
2019-04-07T13:58:29.194Z,710.3
2019-04-07T13:59:39.157Z,710.2
2019-04-07T14:02:53.754Z,709.5
2019-04-07T14:12:46.686Z,709.7
2019-04-07T14:13:48.985Z,709.2
2019-04-07T14:14:51.448Z,709.1
2019-04-07T14:15:54.457Z,708.9
2019-04-07T14:16:57.412Z,709.1
2019-04-07T14:18:01.839Z,709.1
2019-04-07T14:19:05.554Z,709.4
2019-04-07T14:20:10.348Z,708.9
2019-04-07T14:21:14.759Z,709.2
2019-04-07T14:22:20.907Z,709
2019-04-07T14:23:25.464Z,709
2019-04-07T14:24:28.114Z,708.6
2019-04-07T14:25:31.956Z,708.5
2019-04-07T14:26:36.544Z,709
2019-04-07T14:27:42.633Z,708.3
2019-04-07T14:28:46.539Z,708.7
2019-04-07T14:29:52.422Z,708.5
2019-04-07T14:30:57.325Z,708
2019-04-07T14:32:02.053Z,708
2019-04-07T14:33:08.811Z,708.5
2019-04-07T14:34:17.115Z,708.7
2019-04-07T14:35:22.611Z,708.6
2019-04-07T14:36:31.555Z,708.5
2019-04-07T14:37:40.551Z,708.1
2019-04-07T14:38:48.565Z,707.9
2019-04-07T14:39:54.109Z,708.3
2019-04-07T14:41:01.184Z,708.3
2019-04-07T14:43:10.863Z,708.6
2019-04-07T14:44:15.716Z,708.5
2019-04-07T14:45:19.955Z,708.1
2019-04-07T14:46:26.078Z,708.1
2019-04-07T14:47:32.376Z,708.2
2019-04-07T14:48:38.885Z,708.3
2019-04-07T14:50:50.977Z,708.2
2019-04-07T14:51:54.057Z,708.5
2019-04-07T14:52:57.844Z,708.4
2019-04-07T14:54:02.801Z,708
2019-04-07T14:55:08.081Z,708.6
2019-04-07T14:56:12.630Z,708.9
2019-04-07T14:57:17.418Z,709
2019-04-07T14:58:22.137Z,709
2019-04-07T15:00:31.216Z,709.5
2019-04-07T15:01:35.309Z,709.1
2019-04-07T15:02:40.026Z,709
2019-04-07T15:03:44.358Z,709.1
2019-04-07T15:04:48.709Z,709.5
2019-04-07T15:06:59.129Z,709
2019-04-07T15:08:04.390Z,709
2019-04-07T15:11:20.553Z,708.6
2019-04-07T15:13:32.097Z,709.3
2019-04-07T15:14:37.299Z,708.9
2019-04-07T15:15:43.099Z,708.9
2019-04-07T15:16:46.238Z,708.9
2019-04-07T15:17:49.967Z,708.3
2019-04-07T15:18:56.497Z,708.3
2019-04-07T15:19:59.397Z,708.3
2019-04-07T15:21:01.660Z,708.4
2019-04-07T15:22:09.661Z,708.3
2019-04-07T15:23:14.287Z,708.3
2019-04-07T15:24:18.689Z,708.3
2019-04-07T15:25:21.538Z,708.2
2019-04-07T15:26:25.666Z,708.4
2019-04-07T15:27:29.228Z,708.1
2019-04-07T15:28:34.837Z,708.2
2019-04-07T15:32:57.696Z,708.7
2019-04-07T15:39:33.100Z,708.3
2019-04-07T15:43:57.228Z,707.9
2019-04-07T15:45:02.410Z,708
2019-04-07T15:46:06.150Z,707.9
2019-04-07T15:47:09.849Z,707.8
2019-04-07T15:48:13.638Z,707.8
2019-04-07T15:49:16.714Z,707.6
2019-04-07T15:50:19.982Z,707.5
2019-04-07T15:51:24.308Z,707.4
2019-04-07T15:52:27.983Z,707.7
2019-04-07T15:53:31.939Z,707.9
2019-04-07T15:54:37.048Z,706.9
2019-04-07T16:05:25.736Z,707.4
2019-04-07T16:06:28.976Z,706.9
2019-04-07T16:07:33.280Z,706.7
2019-04-07T16:08:36.701Z,706.6
2019-04-07T16:10:46.564Z,706.9
2019-04-07T16:14:07.736Z,706.3
2019-04-07T16:15:15.788Z,706.3
2019-04-07T16:16:22.763Z,706.5
2019-04-07T16:20:47.121Z,706.4
2019-04-07T16:21:51.903Z,706.3
2019-04-07T16:22:55.453Z,706.9
2019-04-07T16:23:59.685Z,706.5
2019-04-07T16:25:03.332Z,706.5
2019-04-07T16:26:06.501Z,706.4
2019-04-07T16:27:11.502Z,706.2
2019-04-07T16:29:22.386Z,706
2019-04-07T16:30:27.377Z,705.9
2019-04-07T16:31:32.219Z,705.8
2019-04-07T16:32:37.551Z,705.5
2019-04-07T16:33:42.963Z,705.4
2019-04-07T16:34:47.664Z,705.3
2019-04-07T16:38:05.197Z,705.5
2019-04-07T16:39:12.356Z,704.9
2019-04-07T16:40:15.899Z,705.2
2019-04-07T16:41:21.132Z,705
2019-04-07T16:42:23.946Z,705.3
2019-04-07T16:46:47.505Z,705
2019-04-07T16:47:51.797Z,705
2019-04-07T16:48:56.575Z,704.6
2019-04-07T16:50:01.571Z,704.7
2019-04-07T16:51:07.170Z,704.4
2019-04-07T16:52:10.712Z,704.7
2019-04-07T16:53:14.835Z,704.4
2019-04-07T16:54:18.511Z,704.3
2019-04-07T16:55:24.049Z,704.2
2019-04-07T16:56:29.160Z,704.1
2019-04-07T17:00:48.514Z,704
2019-04-07T17:01:54.937Z,703.8
2019-04-07T17:02:58.781Z,703.8
2019-04-07T17:04:03.536Z,704
2019-04-07T17:05:10.301Z,704
2019-04-07T17:06:15.779Z,704.1
2019-04-07T17:08:30.559Z,704.3
2019-04-07T17:10:39.720Z,703.8
2019-04-07T17:11:43.273Z,704.1
2019-04-07T17:12:46.929Z,704.2
2019-04-07T17:13:51.288Z,703.9
2019-04-07T17:14:55.235Z,703.7
2019-04-07T17:15:59.286Z,703.9
2019-04-07T17:17:01.955Z,703.8
2019-04-07T17:19:11.746Z,703.2
2019-04-07T17:20:15.624Z,703.5
2019-04-07T17:21:20.292Z,703.2
2019-04-07T17:22:23.591Z,703.3
2019-04-07T17:23:27.702Z,703
2019-04-07T17:24:34.502Z,702.7
2019-04-07T17:25:38.248Z,702.9
2019-04-07T17:26:43.274Z,702.8
2019-04-07T17:27:47.525Z,702.8
2019-04-07T17:28:52.562Z,702.4
2019-04-07T17:29:58.893Z,702.6
2019-04-07T17:31:02.720Z,702.4
2019-04-07T17:32:07.046Z,702.1
2019-04-07T17:33:11.244Z,702.6
2019-04-07T17:35:21.663Z,702.1
2019-04-07T17:36:26.549Z,702
2019-04-07T17:37:32.463Z,702.1
2019-04-07T17:38:37.283Z,702
2019-04-07T17:40:49.202Z,701.9
2019-04-07T17:41:54.064Z,702.2
2019-04-07T17:42:57.747Z,701.9
2019-04-07T17:45:06.455Z,701.3
2019-04-07T17:46:10.495Z,701.5
2019-04-07T17:47:14.638Z,701.3
2019-04-07T17:48:17.355Z,701
2019-04-07T17:49:23.311Z,701.3
2019-04-07T17:51:36.266Z,700.7
2019-04-07T18:03:32.334Z,699.3
2019-04-07T18:05:41.215Z,699.2
2019-04-07T18:06:44.477Z,698.8
2019-04-07T18:07:50.375Z,698.9
2019-04-07T18:10:00.693Z,697.9
2019-04-07T18:11:04.828Z,698.1
2019-04-07T18:14:22.349Z,698.1